sensor_id;sensor_type;location;lat;lon;timestamp;P1;durP1;ratioP1;P2;durP2;ratioP2
41568;SDS011;27283;52.504;13.358;2023-02-26T00:00:13;11.60;;;6.60;;
41568;SDS011;27283;52.504;13.358;2023-02-26T00:03:08;10.07;;;6.38;;
41568;SDS011;27283;52.504;13.358;2023-02-26T00:05:39;9.70;;;5.60;;
41568;SDS011;27283;52.504;13.358;2023-02-26T00:08:15;6.82;;;4.30;;
41568;SDS011;27283;52.504;13.358;2023-02-26T00:10:47;6.53;;;3.10;;
41568;SDS011;27283;52.504;13.358;2023-02-26T00:13:22;6.63;;;2.30;;
41568;SDS011;27283;52.504;13.358;2023-02-26T00:15:55;5.32;;;2.00;;
41568;SDS011;27283;52.504;13.358;2023-02-26T00:18:31;4.72;;;2.15;;
41568;SDS011;27283;52.504;13.358;2023-02-26T00:21:06;6.60;;;2.30;;
41568;SDS011;27283;52.504;13.358;2023-02-26T00:23:50;7.80;;;2.30;;
41568;SDS011;27283;52.504;13.358;2023-02-26T00:26:22;3.65;;;1.90;;
41568;SDS011;27283;52.504;13.358;2023-02-26T00:28:57;5.70;;;2.05;;
41568;SDS011;27283;52.504;13.358;2023-02-26T00:31:29;6.68;;;2.17;;
41568;SDS011;27283;52.504;13.358;2023-02-26T00:34:02;7.15;;;2.70;;
41568;SDS011;27283;52.504;13.358;2023-02-26T00:36:36;4.03;;;2.03;;
41568;SDS011;27283;52.504;13.358;2023-02-26T00:39:22;7.85;;;2.08;;
41568;SDS011;27283;52.504;13.358;2023-02-26T00:42:05;6.18;;;2.20;;
41568;SDS011;27283;52.504;13.358;2023-02-26T00:44:37;6.63;;;2.03;;
41568;SDS011;27283;52.504;13.358;2023-02-26T00:47:12;8.57;;;1.90;;
41568;SDS011;27283;52.504;13.358;2023-02-26T00:50:06;4.05;;;1.98;;
41568;SDS011;27283;52.504;13.358;2023-02-26T00:52:49;5.05;;;1.70;;
41568;SDS011;27283;52.504;13.358;2023-02-26T00:55:32;4.65;;;2.08;;
41568;SDS011;27283;52.504;13.358;2023-02-26T00:58:04;4.85;;;1.95;;
41568;SDS011;27283;52.504;13.358;2023-02-26T01:00:36;5.10;;;2.53;;
41568;SDS011;27283;52.504;13.358;2023-02-26T01:03:08;10.43;;;3.30;;
41568;SDS011;27283;52.504;13.358;2023-02-26T01:05:40;8.40;;;2.53;;
41568;SDS011;27283;52.504;13.358;2023-02-26T01:08:14;6.55;;;2.90;;
41568;SDS011;27283;52.504;13.358;2023-02-26T01:10:55;8.35;;;3.22;;
41568;SDS011;27283;52.504;13.358;2023-02-26T01:13:27;5.88;;;2.42;;
41568;SDS011;27283;52.504;13.358;2023-02-26T01:16:01;10.68;;;2.65;;
41568;SDS011;27283;52.504;13.358;2023-02-26T01:18:41;6.65;;;3.35;;
41568;SDS011;27283;52.504;13.358;2023-02-26T01:21:17;4.50;;;2.47;;
41568;SDS011;27283;52.504;13.358;2023-02-26T01:23:54;6.80;;;2.50;;
41568;SDS011;27283;52.504;13.358;2023-02-26T01:26:28;6.13;;;2.25;;
41568;SDS011;27283;52.504;13.358;2023-02-26T01:29:00;7.50;;;1.90;;
41568;SDS011;27283;52.504;13.358;2023-02-26T01:31:37;6.60;;;1.50;;
41568;SDS011;27283;52.504;13.358;2023-02-26T01:34:14;6.95;;;1.70;;
41568;SDS011;27283;52.504;13.358;2023-02-26T01:36:59;5.68;;;1.63;;
41568;SDS011;27283;52.504;13.358;2023-02-26T01:39:38;6.90;;;1.95;;
41568;SDS011;27283;52.504;13.358;2023-02-26T01:42:19;4.18;;;1.52;;
41568;SDS011;27283;52.504;13.358;2023-02-26T01:44:55;4.72;;;1.90;;
41568;SDS011;27283;52.504;13.358;2023-02-26T01:47:32;4.40;;;1.88;;
41568;SDS011;27283;52.504;13.358;2023-02-26T01:50:12;4.85;;;2.10;;
41568;SDS011;27283;52.504;13.358;2023-02-26T01:55:47;7.10;;;1.70;;
41568;SDS011;27283;52.504;13.358;2023-02-26T01:58:25;7.07;;;1.92;;
41568;SDS011;27283;52.504;13.358;2023-02-26T02:01:01;5.97;;;1.77;;
41568;SDS011;27283;52.504;13.358;2023-02-26T02:03:34;7.25;;;1.80;;
41568;SDS011;27283;52.504;13.358;2023-02-26T02:06:10;6.20;;;2.05;;
41568;SDS011;27283;52.504;13.358;2023-02-26T02:08:47;7.65;;;1.70;;
41568;SDS011;27283;52.504;13.358;2023-02-26T02:11:19;4.25;;;2.10;;
41568;SDS011;27283;52.504;13.358;2023-02-26T02:13:59;3.55;;;1.73;;
41568;SDS011;27283;52.504;13.358;2023-02-26T02:16:45;5.88;;;1.88;;
41568;SDS011;27283;52.504;13.358;2023-02-26T02:23:08;5.38;;;2.00;;
41568;SDS011;27283;52.504;13.358;2023-02-26T02:25:50;1.50;;;1.40;;
41568;SDS011;27283;52.504;13.358;2023-02-26T02:28:39;6.10;;;1.88;;
41568;SDS011;27283;52.504;13.358;2023-02-26T02:31:27;10.63;;;2.13;;
41568;SDS011;27283;52.504;13.358;2023-02-26T02:34:03;5.38;;;1.60;;
41568;SDS011;27283;52.504;13.358;2023-02-26T02:36:45;4.45;;;1.52;;
41568;SDS011;27283;52.504;13.358;2023-02-26T02:39:23;3.53;;;1.70;;
41568;SDS011;27283;52.504;13.358;2023-02-26T02:42:00;5.72;;;1.60;;
41568;SDS011;27283;52.504;13.358;2023-02-26T02:44:37;5.72;;;1.40;;
41568;SDS011;27283;52.504;13.358;2023-02-26T02:47:15;6.78;;;1.45;;
41568;SDS011;27283;52.504;13.358;2023-02-26T02:49:50;4.40;;;1.63;;
41568;SDS011;27283;52.504;13.358;2023-02-26T02:52:31;4.28;;;1.33;;
41568;SDS011;27283;52.504;13.358;2023-02-26T02:55:11;7.13;;;1.50;;
41568;SDS011;27283;52.504;13.358;2023-02-26T02:57:48;4.25;;;1.40;;
41568;SDS011;27283;52.504;13.358;2023-02-26T03:00:23;6.18;;;1.55;;
41568;SDS011;27283;52.504;13.358;2023-02-26T03:03:02;3.80;;;1.48;;
41568;SDS011;27283;52.504;13.358;2023-02-26T03:05:39;2.92;;;1.40;;
41568;SDS011;27283;52.504;13.358;2023-02-26T03:08:11;4.07;;;1.52;;
41568;SDS011;27283;52.504;13.358;2023-02-26T03:10:51;4.68;;;1.63;;
41568;SDS011;27283;52.504;13.358;2023-02-26T03:13:24;6.10;;;2.00;;
41568;SDS011;27283;52.504;13.358;2023-02-26T03:16:00;3.70;;;1.60;;
41568;SDS011;27283;52.504;13.358;2023-02-26T03:18:50;7.47;;;1.70;;
41568;SDS011;27283;52.504;13.358;2023-02-26T11:19:00;5.07;;;1.50;;
41568;SDS011;27283;52.504;13.358;2023-02-26T11:21:37;4.30;;;1.23;;
41568;SDS011;27283;52.504;13.358;2023-02-26T11:24:14;2.75;;;1.05;;
41568;SDS011;27283;52.504;13.358;2023-02-26T11:26:53;3.60;;;1.42;;
41568;SDS011;27283;52.504;13.358;2023-02-26T11:29:34;3.38;;;1.20;;
41568;SDS011;27283;52.504;13.358;2023-02-26T11:32:13;5.13;;;1.65;;
41568;SDS011;27283;52.504;13.358;2023-02-26T11:34:51;4.07;;;1.35;;
41568;SDS011;27283;52.504;13.358;2023-02-26T11:37:27;4.70;;;1.58;;
41568;SDS011;27283;52.504;13.358;2023-02-26T11:40:03;3.65;;;1.13;;
41568;SDS011;27283;52.504;13.358;2023-02-26T11:42:40;4.30;;;1.40;;
41568;SDS011;27283;52.504;13.358;2023-02-26T11:45:19;3.92;;;1.52;;
41568;SDS011;27283;52.504;13.358;2023-02-26T11:47:59;3.63;;;1.58;;
41568;SDS011;27283;52.504;13.358;2023-02-26T11:50:39;4.43;;;1.52;;
41568;SDS011;27283;52.504;13.358;2023-02-26T11:53:17;5.68;;;1.40;;
41568;SDS011;27283;52.504;13.358;2023-02-26T11:55:57;3.60;;;1.30;;
41568;SDS011;27283;52.504;13.358;2023-02-26T11:58:34;2.13;;;1.10;;
41568;SDS011;27283;52.504;13.358;2023-02-26T12:01:09;7.45;;;1.98;;
41568;SDS011;27283;52.504;13.358;2023-02-26T12:03:45;4.97;;;1.20;;
41568;SDS011;27283;52.504;13.358;2023-02-26T12:06:23;2.65;;;1.33;;
41568;SDS011;27283;52.504;13.358;2023-02-26T12:08:55;3.50;;;1.38;;
41568;SDS011;27283;52.504;13.358;2023-02-26T12:11:46;3.65;;;1.52;;
41568;SDS011;27283;52.504;13.358;2023-02-26T12:17:42;2.92;;;1.20;;
41568;SDS011;27283;52.504;13.358;2023-02-26T12:20:24;1.65;;;1.10;;
41568;SDS011;27283;52.504;13.358;2023-02-26T12:23:05;4.00;;;1.38;;
41568;SDS011;27283;52.504;13.358;2023-02-26T12:25:56;2.90;;;1.20;;
41568;SDS011;27283;52.504;13.358;2023-02-26T12:28:45;2.80;;;1.35;;
41568;SDS011;27283;52.504;13.358;2023-02-26T12:38:00;3.25;;;1.40;;
41568;SDS011;27283;52.504;13.358;2023-02-26T12:40:54;4.35;;;1.90;;
41568;SDS011;27283;52.504;13.358;2023-02-26T12:43:40;3.88;;;1.58;;
41568;SDS011;27283;52.504;13.358;2023-02-26T12:52:29;5.70;;;1.20;;
41568;SDS011;27283;52.504;13.358;2023-02-26T12:55:26;4.95;;;1.20;;
41568;SDS011;27283;52.504;13.358;2023-02-26T12:58:13;2.65;;;1.15;;
41568;SDS011;27283;52.504;13.358;2023-02-26T13:01:19;4.03;;;1.50;;
41568;SDS011;27283;52.504;13.358;2023-02-26T13:04:06;4.35;;;1.20;;
41568;SDS011;27283;52.504;13.358;2023-02-26T13:07:15;3.10;;;1.42;;
41568;SDS011;27283;52.504;13.358;2023-02-26T13:10:02;5.43;;;1.63;;
41568;SDS011;27283;52.504;13.358;2023-02-26T13:12:45;3.50;;;1.30;;
41568;SDS011;27283;52.504;13.358;2023-02-26T13:15:44;6.43;;;1.50;;
41568;SDS011;27283;52.504;13.358;2023-02-26T13:18:34;2.53;;;1.35;;
41568;SDS011;27283;52.504;13.358;2023-02-26T13:21:15;4.35;;;1.30;;
41568;SDS011;27283;52.504;13.358;2023-02-26T13:23:53;3.03;;;1.42;;
41568;SDS011;27283;52.504;13.358;2023-02-26T13:26:28;2.90;;;1.30;;
41568;SDS011;27283;52.504;13.358;2023-02-26T13:29:05;5.25;;;1.65;;
41568;SDS011;27283;52.504;13.358;2023-02-26T13:31:46;4.95;;;1.38;;
41568;SDS011;27283;52.504;13.358;2023-02-26T13:34:33;2.45;;;1.50;;
41568;SDS011;27283;52.504;13.358;2023-02-26T13:37:13;5.32;;;1.20;;
41568;SDS011;27283;52.504;13.358;2023-02-26T13:39:56;3.08;;;1.48;;
41568;SDS011;27283;52.504;13.358;2023-02-26T13:42:45;3.78;;;1.52;;
41568;SDS011;27283;52.504;13.358;2023-02-26T13:45:33;4.38;;;1.42;;
41568;SDS011;27283;52.504;13.358;2023-02-26T13:48:18;5.45;;;1.38;;
41568;SDS011;27283;52.504;13.358;2023-02-26T13:51:00;4.95;;;1.20;;
41568;SDS011;27283;52.504;13.358;2023-02-26T13:53:45;1.58;;;1.10;;
41568;SDS011;27283;52.504;13.358;2023-02-26T13:56:47;3.67;;;1.20;;
41568;SDS011;27283;52.504;13.358;2023-02-26T13:59:25;3.70;;;1.20;;
41568;SDS011;27283;52.504;13.358;2023-02-26T14:05:32;2.35;;;1.35;;
41568;SDS011;27283;52.504;13.358;2023-02-26T14:14:33;5.93;;;1.60;;
41568;SDS011;27283;52.504;13.358;2023-02-26T14:17:25;3.00;;;2.17;;
41568;SDS011;27283;52.504;13.358;2023-02-26T14:20:18;4.20;;;3.75;;
41568;SDS011;27283;52.504;13.358;2023-02-26T14:23:12;5.65;;;2.40;;
41568;SDS011;27283;52.504;13.358;2023-02-26T14:26:03;2.88;;;1.70;;
41568;SDS011;27283;52.504;13.358;2023-02-26T14:28:55;4.30;;;2.00;;
41568;SDS011;27283;52.504;13.358;2023-02-26T14:34:34;4.90;;;2.00;;
41568;SDS011;27283;52.504;13.358;2023-02-26T14:37:22;16.00;;;5.63;;
41568;SDS011;27283;52.504;13.358;2023-02-26T14:39:57;2.45;;;1.20;;
41568;SDS011;27283;52.504;13.358;2023-02-26T14:42:37;2.83;;;1.40;;
41568;SDS011;27283;52.504;13.358;2023-02-26T14:45:24;6.07;;;1.48;;
41568;SDS011;27283;52.504;13.358;2023-02-26T14:48:00;3.67;;;1.80;;
41568;SDS011;27283;52.504;13.358;2023-02-26T14:50:38;6.47;;;1.48;;
41568;SDS011;27283;52.504;13.358;2023-02-26T14:53:35;2.70;;;1.10;;
41568;SDS011;27283;52.504;13.358;2023-02-26T14:56:31;3.33;;;1.40;;
41568;SDS011;27283;52.504;13.358;2023-02-26T14:59:20;2.97;;;1.23;;
41568;SDS011;27283;52.504;13.358;2023-02-26T15:02:16;2.67;;;1.25;;
41568;SDS011;27283;52.504;13.358;2023-02-26T15:08:01;3.67;;;1.60;;
41568;SDS011;27283;52.504;13.358;2023-02-26T15:11:03;2.30;;;1.30;;
41568;SDS011;27283;52.504;13.358;2023-02-26T15:13:52;3.55;;;1.35;;
41568;SDS011;27283;52.504;13.358;2023-02-26T15:16:44;1.80;;;1.20;;
41568;SDS011;27283;52.504;13.358;2023-02-26T15:19:31;3.28;;;1.52;;
41568;SDS011;27283;52.504;13.358;2023-02-26T15:22:21;6.22;;;1.42;;
41568;SDS011;27283;52.504;13.358;2023-02-26T15:25:03;3.42;;;1.13;;
41568;SDS011;27283;52.504;13.358;2023-02-26T15:27:45;4.45;;;1.40;;
41568;SDS011;27283;52.504;13.358;2023-02-26T15:30:18;2.42;;;1.20;;
41568;SDS011;27283;52.504;13.358;2023-02-26T15:32:55;2.33;;;1.40;;
41568;SDS011;27283;52.504;13.358;2023-02-26T15:35:29;1.25;;;1.15;;
41568;SDS011;27283;52.504;13.358;2023-02-26T15:38:02;5.22;;;2.50;;
41568;SDS011;27283;52.504;13.358;2023-02-26T15:40:35;4.55;;;1.58;;
41568;SDS011;27283;52.504;13.358;2023-02-26T15:43:12;3.15;;;1.20;;
41568;SDS011;27283;52.504;13.358;2023-02-26T15:45:47;2.35;;;1.17;;
41568;SDS011;27283;52.504;13.358;2023-02-26T15:48:25;3.33;;;1.20;;
41568;SDS011;27283;52.504;13.358;2023-02-26T15:51:00;3.95;;;1.65;;
41568;SDS011;27283;52.504;13.358;2023-02-26T15:53:35;3.10;;;1.30;;
41568;SDS011;27283;52.504;13.358;2023-02-26T15:56:13;5.65;;;1.35;;
41568;SDS011;27283;52.504;13.358;2023-02-26T15:58:53;2.85;;;1.45;;
41568;SDS011;27283;52.504;13.358;2023-02-26T16:01:27;5.47;;;1.30;;
41568;SDS011;27283;52.504;13.358;2023-02-26T16:04:02;2.70;;;1.30;;
41568;SDS011;27283;52.504;13.358;2023-02-26T16:06:36;3.05;;;1.60;;
41568;SDS011;27283;52.504;13.358;2023-02-26T16:09:14;3.53;;;1.55;;
41568;SDS011;27283;52.504;13.358;2023-02-26T16:11:48;3.75;;;1.60;;
41568;SDS011;27283;52.504;13.358;2023-02-26T16:14:23;4.97;;;1.88;;
41568;SDS011;27283;52.504;13.358;2023-02-26T16:16:59;3.58;;;1.40;;
41568;SDS011;27283;52.504;13.358;2023-02-26T16:19:34;2.10;;;1.30;;
41568;SDS011;27283;52.504;13.358;2023-02-26T16:22:11;2.63;;;1.20;;
41568;SDS011;27283;52.504;13.358;2023-02-26T16:24:52;2.10;;;1.30;;
41568;SDS011;27283;52.504;13.358;2023-02-26T16:27:29;2.90;;;1.20;;
41568;SDS011;27283;52.504;13.358;2023-02-26T16:30:12;2.45;;;1.30;;
41568;SDS011;27283;52.504;13.358;2023-02-26T16:32:51;4.38;;;1.50;;
41568;SDS011;27283;52.504;13.358;2023-02-26T16:35:27;2.55;;;1.20;;
41568;SDS011;27283;52.504;13.358;2023-02-26T16:38:09;3.05;;;1.27;;
41568;SDS011;27283;52.504;13.358;2023-02-26T16:40:57;2.50;;;1.45;;
41568;SDS011;27283;52.504;13.358;2023-02-26T16:43:33;2.92;;;1.40;;
41568;SDS011;27283;52.504;13.358;2023-02-26T16:46:24;4.18;;;1.42;;
41568;SDS011;27283;52.504;13.358;2023-02-26T16:49:05;3.08;;;1.42;;
41568;SDS011;27283;52.504;13.358;2023-02-26T16:51:41;2.83;;;1.42;;
41568;SDS011;27283;52.504;13.358;2023-02-26T16:54:16;4.57;;;1.52;;
41568;SDS011;27283;52.504;13.358;2023-02-26T16:56:55;4.07;;;1.40;;
41568;SDS011;27283;52.504;13.358;2023-02-26T16:59:30;4.78;;;1.80;;
41568;SDS011;27283;52.504;13.358;2023-02-26T17:02:11;2.05;;;1.50;;
41568;SDS011;27283;52.504;13.358;2023-02-26T17:04:48;2.10;;;1.50;;
41568;SDS011;27283;52.504;13.358;2023-02-26T17:07:25;3.22;;;1.60;;
41568;SDS011;27283;52.504;13.358;2023-02-26T17:10:04;2.63;;;1.60;;
41568;SDS011;27283;52.504;13.358;2023-02-26T17:12:50;3.25;;;1.63;;
41568;SDS011;27283;52.504;13.358;2023-02-26T17:15:34;3.95;;;1.67;;
41568;SDS011;27283;52.504;13.358;2023-02-26T17:18:11;3.08;;;1.73;;
41568;SDS011;27283;52.504;13.358;2023-02-26T17:20:42;2.58;;;1.45;;
41568;SDS011;27283;52.504;13.358;2023-02-26T17:23:16;4.80;;;1.65;;
41568;SDS011;27283;52.504;13.358;2023-02-26T17:25:50;5.35;;;1.83;;
41568;SDS011;27283;52.504;13.358;2023-02-26T17:28:25;3.65;;;1.90;;
41568;SDS011;27283;52.504;13.358;2023-02-26T17:30:58;2.53;;;1.70;;
41568;SDS011;27283;52.504;13.358;2023-02-26T17:33:33;3.30;;;1.90;;
41568;SDS011;27283;52.504;13.358;2023-02-26T17:36:10;3.45;;;1.63;;
41568;SDS011;27283;52.504;13.358;2023-02-26T17:38:46;3.38;;;1.80;;
41568;SDS011;27283;52.504;13.358;2023-02-26T17:41:18;4.60;;;1.70;;
41568;SDS011;27283;52.504;13.358;2023-02-26T17:43:51;3.53;;;1.80;;
41568;SDS011;27283;52.504;13.358;2023-02-26T17:46:23;2.90;;;1.90;;
41568;SDS011;27283;52.504;13.358;2023-02-26T17:48:58;4.45;;;1.92;;
41568;SDS011;27283;52.504;13.358;2023-02-26T17:51:30;4.97;;;2.10;;
41568;SDS011;27283;52.504;13.358;2023-02-26T17:54:03;4.75;;;2.13;;
41568;SDS011;27283;52.504;13.358;2023-02-26T17:56:35;3.58;;;2.05;;
41568;SDS011;27283;52.504;13.358;2023-02-26T17:59:09;5.05;;;1.80;;
41568;SDS011;27283;52.504;13.358;2023-02-26T18:01:41;3.90;;;1.75;;
41568;SDS011;27283;52.504;13.358;2023-02-26T18:04:17;2.58;;;1.75;;
41568;SDS011;27283;52.504;13.358;2023-02-26T18:06:50;3.60;;;1.42;;
41568;SDS011;27283;52.504;13.358;2023-02-26T18:09:22;3.38;;;1.90;;
41568;SDS011;27283;52.504;13.358;2023-02-26T18:11:56;4.43;;;1.60;;
41568;SDS011;27283;52.504;13.358;2023-02-26T18:14:28;4.15;;;1.90;;
41568;SDS011;27283;52.504;13.358;2023-02-26T18:17:00;2.53;;;1.50;;
41568;SDS011;27283;52.504;13.358;2023-02-26T18:19:35;4.15;;;1.80;;
41568;SDS011;27283;52.504;13.358;2023-02-26T18:22:08;2.78;;;2.03;;
41568;SDS011;27283;52.504;13.358;2023-02-26T18:24:43;3.00;;;1.85;;
41568;SDS011;27283;52.504;13.358;2023-02-26T18:27:16;1.90;;;1.50;;
41568;SDS011;27283;52.504;13.358;2023-02-26T18:29:50;3.42;;;1.70;;
41568;SDS011;27283;52.504;13.358;2023-02-26T18:32:22;3.85;;;1.67;;
41568;SDS011;27283;52.504;13.358;2023-02-26T18:34:58;2.85;;;1.77;;
41568;SDS011;27283;52.504;13.358;2023-02-26T18:37:31;4.85;;;2.00;;
41568;SDS011;27283;52.504;13.358;2023-02-26T18:40:05;3.63;;;1.95;;
41568;SDS011;27283;52.504;13.358;2023-02-26T18:42:38;3.88;;;1.90;;
41568;SDS011;27283;52.504;13.358;2023-02-26T18:45:10;4.18;;;1.95;;
41568;SDS011;27283;52.504;13.358;2023-02-26T18:47:42;3.78;;;1.85;;
41568;SDS011;27283;52.504;13.358;2023-02-26T18:50:17;2.80;;;1.70;;
41568;SDS011;27283;52.504;13.358;2023-02-26T18:52:50;5.00;;;1.88;;
41568;SDS011;27283;52.504;13.358;2023-02-26T18:55:22;3.10;;;1.80;;
41568;SDS011;27283;52.504;13.358;2023-02-26T18:57:54;3.17;;;1.80;;
41568;SDS011;27283;52.504;13.358;2023-02-26T19:00:26;2.63;;;1.73;;
41568;SDS011;27283;52.504;13.358;2023-02-26T19:02:59;3.67;;;1.90;;
41568;SDS011;27283;52.504;13.358;2023-02-26T19:05:35;4.07;;;1.80;;
41568;SDS011;27283;52.504;13.358;2023-02-26T19:08:07;4.10;;;2.10;;
41568;SDS011;27283;52.504;13.358;2023-02-26T19:10:40;4.10;;;1.90;;
41568;SDS011;27283;52.504;13.358;2023-02-26T19:13:12;3.58;;;2.03;;
41568;SDS011;27283;52.504;13.358;2023-02-26T19:15:45;3.40;;;1.70;;
41568;SDS011;27283;52.504;13.358;2023-02-26T19:18:18;4.68;;;1.98;;
41568;SDS011;27283;52.504;13.358;2023-02-26T19:20:53;4.75;;;2.20;;
41568;SDS011;27283;52.504;13.358;2023-02-26T19:23:27;5.35;;;2.05;;
41568;SDS011;27283;52.504;13.358;2023-02-26T19:25:59;5.63;;;1.98;;
41568;SDS011;27283;52.504;13.358;2023-02-26T19:28:32;5.15;;;1.90;;
41568;SDS011;27283;52.504;13.358;2023-02-26T19:31:05;3.17;;;1.90;;
41568;SDS011;27283;52.504;13.358;2023-02-26T19:33:37;3.70;;;1.90;;
41568;SDS011;27283;52.504;13.358;2023-02-26T19:36:12;2.95;;;1.70;;
41568;SDS011;27283;52.504;13.358;2023-02-26T19:38:44;4.35;;;1.95;;
41568;SDS011;27283;52.504;13.358;2023-02-26T19:41:17;4.07;;;1.92;;
41568;SDS011;27283;52.504;13.358;2023-02-26T19:43:49;5.00;;;2.28;;
41568;SDS011;27283;52.504;13.358;2023-02-26T19:46:22;2.75;;;1.90;;
41568;SDS011;27283;52.504;13.358;2023-02-26T19:48:54;3.95;;;2.03;;
41568;SDS011;27283;52.504;13.358;2023-02-26T19:51:29;2.92;;;2.17;;
41568;SDS011;27283;52.504;13.358;2023-02-26T19:54:01;6.07;;;2.40;;
41568;SDS011;27283;52.504;13.358;2023-02-26T19:56:33;5.35;;;2.50;;
41568;SDS011;27283;52.504;13.358;2023-02-26T19:59:05;3.58;;;2.28;;
41568;SDS011;27283;52.504;13.358;2023-02-26T20:01:38;4.45;;;2.13;;
41568;SDS011;27283;52.504;13.358;2023-02-26T20:04:11;3.65;;;2.08;;
41568;SDS011;27283;52.504;13.358;2023-02-26T20:06:46;5.20;;;2.40;;
41568;SDS011;27283;52.504;13.358;2023-02-26T20:09:18;4.55;;;2.20;;
41568;SDS011;27283;52.504;13.358;2023-02-26T20:11:51;4.30;;;2.10;;
41568;SDS011;27283;52.504;13.358;2023-02-26T20:14:24;5.43;;;2.53;;
41568;SDS011;27283;52.504;13.358;2023-02-26T20:16:56;5.13;;;2.33;;
41568;SDS011;27283;52.504;13.358;2023-02-26T20:19:28;5.47;;;2.08;;
41568;SDS011;27283;52.504;13.358;2023-02-26T20:22:04;3.95;;;2.40;;
41568;SDS011;27283;52.504;13.358;2023-02-26T20:24:36;4.45;;;2.25;;
41568;SDS011;27283;52.504;13.358;2023-02-26T20:27:09;3.78;;;2.30;;
41568;SDS011;27283;52.504;13.358;2023-02-26T20:29:41;5.20;;;2.60;;
41568;SDS011;27283;52.504;13.358;2023-02-26T20:32:13;4.28;;;2.20;;
41568;SDS011;27283;52.504;13.358;2023-02-26T20:34:46;4.85;;;2.30;;
41568;SDS011;27283;52.504;13.358;2023-02-26T20:37:22;5.32;;;2.58;;
41568;SDS011;27283;52.504;13.358;2023-02-26T20:39:54;5.57;;;2.92;;
41568;SDS011;27283;52.504;13.358;2023-02-26T20:42:26;7.18;;;2.72;;
41568;SDS011;27283;52.504;13.358;2023-02-26T20:44:58;5.75;;;2.72;;
41568;SDS011;27283;52.504;13.358;2023-02-26T20:47:30;8.65;;;4.50;;
41568;SDS011;27283;52.504;13.358;2023-02-26T20:50:02;7.60;;;3.50;;
41568;SDS011;27283;52.504;13.358;2023-02-26T20:52:50;5.43;;;3.05;;
41568;SDS011;27283;52.504;13.358;2023-02-26T20:55:22;10.02;;;3.40;;
41568;SDS011;27283;52.504;13.358;2023-02-26T20:57:55;5.78;;;3.38;;
41568;SDS011;27283;52.504;13.358;2023-02-26T21:00:27;5.88;;;3.17;;
41568;SDS011;27283;52.504;13.358;2023-02-26T21:02:59;6.80;;;3.38;;
41568;SDS011;27283;52.504;13.358;2023-02-26T21:05:31;6.03;;;3.33;;
41568;SDS011;27283;52.504;13.358;2023-02-26T21:08:06;5.13;;;3.10;;
41568;SDS011;27283;52.504;13.358;2023-02-26T21:10:38;4.97;;;3.00;;
41568;SDS011;27283;52.504;13.358;2023-02-26T21:13:11;7.25;;;3.15;;
41568;SDS011;27283;52.504;13.358;2023-02-26T21:15:43;5.35;;;3.28;;
41568;SDS011;27283;52.504;13.358;2023-02-26T21:18:15;7.22;;;3.10;;
41568;SDS011;27283;52.504;13.358;2023-02-26T21:20:47;6.07;;;3.40;;
41568;SDS011;27283;52.504;13.358;2023-02-26T21:23:22;4.80;;;3.33;;
41568;SDS011;27283;52.504;13.358;2023-02-26T21:25:55;6.10;;;3.35;;
41568;SDS011;27283;52.504;13.358;2023-02-26T21:28:27;6.75;;;3.80;;
41568;SDS011;27283;52.504;13.358;2023-02-26T21:30:59;6.63;;;3.20;;
41568;SDS011;27283;52.504;13.358;2023-02-26T21:33:32;6.88;;;3.42;;
41568;SDS011;27283;52.504;13.358;2023-02-26T21:36:04;7.07;;;3.65;;
41568;SDS011;27283;52.504;13.358;2023-02-26T21:38:40;6.53;;;3.50;;
41568;SDS011;27283;52.504;13.358;2023-02-26T21:41:12;11.15;;;3.75;;
41568;SDS011;27283;52.504;13.358;2023-02-26T21:43:44;6.35;;;3.53;;
41568;SDS011;27283;52.504;13.358;2023-02-26T21:46:16;6.25;;;3.53;;
41568;SDS011;27283;52.504;13.358;2023-02-26T21:48:50;7.30;;;3.92;;
41568;SDS011;27283;52.504;13.358;2023-02-26T21:51:22;7.07;;;3.60;;
41568;SDS011;27283;52.504;13.358;2023-02-26T21:53:57;6.32;;;3.60;;
41568;SDS011;27283;52.504;13.358;2023-02-26T21:56:29;6.50;;;3.58;;
41568;SDS011;27283;52.504;13.358;2023-02-26T21:59:01;4.63;;;3.05;;
41568;SDS011;27283;52.504;13.358;2023-02-26T22:01:33;6.00;;;3.22;;
41568;SDS011;27283;52.504;13.358;2023-02-26T22:04:06;8.40;;;3.63;;
41568;SDS011;27283;52.504;13.358;2023-02-26T22:06:38;5.30;;;3.22;;
41568;SDS011;27283;52.504;13.358;2023-02-26T22:09:13;7.82;;;3.83;;
41568;SDS011;27283;52.504;13.358;2023-02-26T22:11:46;7.70;;;3.30;;
41568;SDS011;27283;52.504;13.358;2023-02-26T22:14:19;10.23;;;4.10;;
41568;SDS011;27283;52.504;13.358;2023-02-26T22:16:50;9.13;;;3.63;;
41568;SDS011;27283;52.504;13.358;2023-02-26T22:19:23;8.10;;;4.13;;
41568;SDS011;27283;52.504;13.358;2023-02-26T22:21:55;5.90;;;3.45;;
41568;SDS011;27283;52.504;13.358;2023-02-26T22:24:30;8.68;;;4.00;;
41568;SDS011;27283;52.504;13.358;2023-02-26T22:27:04;7.75;;;3.97;;
41568;SDS011;27283;52.504;13.358;2023-02-26T22:29:36;8.27;;;4.13;;
41568;SDS011;27283;52.504;13.358;2023-02-26T22:32:08;6.70;;;3.72;;
41568;SDS011;27283;52.504;13.358;2023-02-26T22:34:41;11.98;;;5.53;;
41568;SDS011;27283;52.504;13.358;2023-02-26T22:37:13;8.77;;;3.95;;
41568;SDS011;27283;52.504;13.358;2023-02-26T22:39:48;8.02;;;4.30;;
41568;SDS011;27283;52.504;13.358;2023-02-26T22:42:21;7.13;;;3.90;;
41568;SDS011;27283;52.504;13.358;2023-02-26T22:44:54;8.35;;;4.38;;
41568;SDS011;27283;52.504;13.358;2023-02-26T22:47:26;10.05;;;4.00;;
41568;SDS011;27283;52.504;13.358;2023-02-26T22:49:59;6.88;;;3.70;;
41568;SDS011;27283;52.504;13.358;2023-02-26T22:52:31;6.53;;;3.58;;
41568;SDS011;27283;52.504;13.358;2023-02-26T22:55:07;9.25;;;3.75;;
41568;SDS011;27283;52.504;13.358;2023-02-26T22:57:40;10.80;;;4.32;;
41568;SDS011;27283;52.504;13.358;2023-02-26T23:00:14;9.95;;;3.97;;
41568;SDS011;27283;52.504;13.358;2023-02-26T23:02:49;6.40;;;3.67;;
41568;SDS011;27283;52.504;13.358;2023-02-26T23:05:21;8.73;;;3.80;;
41568;SDS011;27283;52.504;13.358;2023-02-26T23:07:53;6.85;;;3.58;;
41568;SDS011;27283;52.504;13.358;2023-02-26T23:10:29;9.15;;;3.50;;
41568;SDS011;27283;52.504;13.358;2023-02-26T23:13:01;9.77;;;4.45;;
41568;SDS011;27283;52.504;13.358;2023-02-26T23:15:34;9.98;;;3.63;;
41568;SDS011;27283;52.504;13.358;2023-02-26T23:18:06;7.45;;;3.30;;
41568;SDS011;27283;52.504;13.358;2023-02-26T23:20:39;6.95;;;3.42;;
41568;SDS011;27283;52.504;13.358;2023-02-26T23:23:11;7.13;;;3.50;;
41568;SDS011;27283;52.504;13.358;2023-02-26T23:25:47;5.75;;;3.30;;
41568;SDS011;27283;52.504;13.358;2023-02-26T23:28:20;7.10;;;3.28;;
41568;SDS011;27283;52.504;13.358;2023-02-26T23:30:54;6.75;;;3.30;;
41568;SDS011;27283;52.504;13.358;2023-02-26T23:33:26;5.15;;;3.10;;
41568;SDS011;27283;52.504;13.358;2023-02-26T23:35:59;6.90;;;3.35;;
41568;SDS011;27283;52.504;13.358;2023-02-26T23:38:31;4.60;;;3.13;;
41568;SDS011;27283;52.504;13.358;2023-02-26T23:41:07;6.30;;;3.40;;
41568;SDS011;27283;52.504;13.358;2023-02-26T23:43:39;8.55;;;3.20;;
41568;SDS011;27283;52.504;13.358;2023-02-26T23:46:12;5.95;;;3.10;;
41568;SDS011;27283;52.504;13.358;2023-02-26T23:48:44;6.40;;;3.42;;
41568;SDS011;27283;52.504;13.358;2023-02-26T23:51:17;5.25;;;3.13;;
41568;SDS011;27283;52.504;13.358;2023-02-26T23:53:49;6.10;;;2.92;;
41568;SDS011;27283;52.504;13.358;2023-02-26T23:56:25;5.82;;;2.97;;
41568;SDS011;27283;52.504;13.358;2023-02-26T23:58:57;5.57;;;3.03;;
